Terminal Aerodrome Forecast
Issued by NWS

Home | Current Version | Previous Version | Text Only | Print | Product List | Glossary On
Versions: 1 2 3 4 5 6 7 8 9 10 11 12 13 14 15 16 17 18 19 20 21 22 23
000
FTUS43 KABR 311121
TAFMBG
TAF
KMBG 311121Z 3112/0112 28011KT P6SM FEW029 OVC050
     FM311400 26016G22KT P6SM SCT250
     FM311800 26022G31KT P6SM BKN060
     FM010200 29017KT P6SM BKN045=

USA.gov is the U.S. government's official web portal to all federal, state and local government web resources and services.